Picher, Oklahoma
Current Conditions -  °F | °C
As of 10:53 PM on Friday 24 Oct 2014 (Local Time) from KJLN Reporting Station
Clear Clear  
Wind Chill: 65°   Ceiling: Unl
Heat Index: 65°   Visibility: 10mi
Dew Point: 60°   Wind: 10mph
Humidity: 84%   Direction: 190°S
Pressure: 30.05"   Gusts: NA
Location:  36.99°N, 94.83°W
Report Text: KJLN 250353Z AUTO 19009KT 10SM CLR 18/16 A3005 RMK AO2 SLP170 T01830156
Loading
Personal Weather Stations






























Interactive Weather Map
Tropical Storm Tracking
New forecast layout! Learn more

10-Day Weather Forecast

Advertisements
Track Severe Weather on mobile